Stonington, Connecticut
Current Conditions -  °F | °C
As of 7:53 PM on Saturday 25 Oct 2014 (Local Time) from KWST Reporting Station
Clear Clear  
Wind Chill: 59°   Ceiling: Unl
Heat Index: 59°   Visibility: 10mi
Dew Point: 49°   Wind: 7mph
Humidity: 69%   Direction: 240°WSW
Pressure: 29.63"   Gusts: NA
Location:  41.34°N, 71.91°W
Report Text: KWST 252353Z AUTO 24006KT 10SM CLR 15/09 A2963 RMK AO2 SLP032 T01500094 10172 20144 56007
Loading
Personal Weather Stations






























Interactive Weather Map
Tropical Storm Tracking
New forecast layout! Learn more

10-Day Weather Forecast

Advertisements
Track Severe Weather on mobile